Ana Sayfa
METAR-TAF:

METAR-TAF

Havaalanları :

Oslo-Gardermoen Havalimanı

Oslo, Norveç

Enlem: 60-12N, Boylam: 011-05E, yükseklik: 208 m

Güncel hava durumu gözlemi

Rapor saat 01:50 UTC de 16 dakika önce yapıldı.
Rüzgar kuzeydan 13 kt
Sıcaklık 3°C
Nem 65%
Basınç 1014 hPa
Görüş mesafesi 10 km veya daha fazla
1500 m altında bulut yok ve kümülonimbus yok

METAR: ENGM 110150Z 36013KT CAVOK 03/M03 Q1014

Saat: 03:06 (02:06 UTC)

Tahmin

Ayın 11'si saat 00 UTC'den ayın 11'si saat 24 UTC'ye kadar geçerli Tahmin
Rüzgar kuzeydan 12 kt
Görüş mesafesi 10 km veya daha fazla
1500 m altında bulut yok ve kümülonimbus yok

TAF: ENGM 1100/1124 35012KT CAVOK

4.000'den fazla havaalanı için hava durumu gözlemleri ve tahminleri (METAR ve TAF raporları).

Kullanılabilir istasyonlar harita üzerinde sarı ve kırmızı noktalarla gösterilir.

İstasyonun adını görmek için fareyi noktanın üzerinde gezdirin.

Sonrasında hava gözlem ve tahminlerini görmek için tıklayın.

Haritayı değiştirmek için: yaklaştırmak için siyah artı işaretli yeşil düğmeye ve uzaklaştırmak için de eksi işaretli düğmeye hızla tıklayın; bitişik haritalar için yeşil okları kullanın.


METAR-TAF: